Aeroporto :
LOGIN :

Iscrizione | Disclaimer

   EN    FR    IT 

 










Sommario :    VFR   VFR Marginale   IFR   IFR Intensivo   IFR Molto Intensivo
Visibilità : 
Base nubi : 
>= 8 km
>= 3000ft
5 / 8 km
1000 / 3000 ft
1500m / 5 km
500 / 1000 ft
800 / 1500m
200 / 500 ft
< 800m
< 200 ft
Simboli :   Temporali  Nebbia  Neve Forte  Precipitazioni Forti  Vento > 20 kt
SIGMETs :   Varie  Temporali  Ghiacco  Turbolenza  Onda orograficha  Ceneri Vulcaniche






- Altitudine del aeroporto : 171 ft
- Codice IATA : EGC


LFBE - Bergerac

ULTIMO METAR :
  • 240900Z AUTO 26005KT 3200 BR OVC022 07/06 Q1019 TEMPO SHRA BKN025TCU

METARs OBSOLETI :
  • 240830Z AUTO VRB02KT 5000 -RADZ BR SCT025 OVC033 07/05 Q1019 TEMPO SHRA BKN025TCU
  • 240800Z AUTO VRB01KT 6000 BKN032 OVC038 06/04 Q1019 TEMPO 4000 -RA
  • 240730Z AUTO 00000KT 5000 -RA BR FEW018 OVC037 05/04 Q1019 NOSIG
  • 240700Z AUTO 13001KT 6000 BKN036 OVC042 05/03 Q1019 TEMPO 4000 -RA
  • 240630Z AUTO VRB01KT 7000 OVC039 04/03 Q1019 TEMPO 4000 -RA
  • 240600Z AUTO 08002KT 5000 BR BKN040 BKN048 BKN062 03/03 Q1019 NOSIG
  • 240530Z AUTO VRB02KT 8000 FEW039 BKN048 BKN056 03/02 Q1019 TEMPO 4000 -RA
  • 240500Z AUTO 00000KT CAVOK 02/02 Q1020 TEMPO 4000 -RA
  • 240430Z AUTO VRB02KT CAVOK 02/01 Q1020 TEMPO 4000 -RA
  • 240400Z AUTO VRB02KT CAVOK 01/01 Q1020 NOSIG

TAF TAF LFBE
Valido dal 24 a 06 ore il 25 a 06 ore UTC


240500Z 2406/2506 VRB02KT CAVOK
TEMPO 2406/2410 4000 -RA BKN030
FM241000 29010KT 9999 BKN030
TEMPO 2410/2417 4000 SHRA BKN025TCU
BECMG 2423/2501 VRB02KT
TEMPO 2502/2506 4000 RA BKN003
PROB30
TEMPO 2503/2506 0300 FG VV///



MetMap, La meteo Aeronautica in un colpo d'occhio ! - Copyright ORBIFLY Dicembre 2007 - Disclaimer

ORBIFLY MET'MAP TEAM :

Programmazione e sviluppo : Alexandra Zaïnal
Concezione : Baudouin d'Aumeries
Supporto tecnico e logistico : Manuel Goepfert
Aiuto : Marc-Olivier Méhu
Aiuto per la traduzione : Arnaldo La Scala




FONTI E CREDITI :

   NOAA